createdAt,value
2023-04-18T00:00:25.443Z,100799.19
2023-04-18T00:02:52.353Z,100793.44
2023-04-18T00:05:33.629Z,100793.44
2023-04-18T00:08:07.544Z,100796.84
2023-04-18T00:10:39.672Z,100794.53
2023-04-18T00:13:09.719Z,100787.56
2023-04-18T00:15:39.593Z,100792.28
2023-04-18T00:18:18.056Z,100783.22
2023-04-18T00:20:45.122Z,100793.94
2023-04-18T00:23:34.666Z,100792.31
2023-04-18T00:26:12.053Z,100788.50
2023-04-18T00:28:45.029Z,100792.28
2023-04-18T00:31:20.622Z,100794.81
2023-04-18T00:33:49.865Z,100793.66
2023-04-18T00:36:25.308Z,100785.06
2023-04-18T00:39:00.788Z,100795.31
2023-04-18T00:41:30.142Z,100787.00
2023-04-18T00:43:57.023Z,100797.31
2023-04-18T00:46:29.843Z,100788.88
2023-04-18T00:49:08.065Z,100794.19
2023-04-18T00:51:43.972Z,100792.81
2023-04-18T00:54:24.826Z,100793.75
2023-04-18T00:56:57.619Z,100785.06
2023-04-18T00:59:24.682Z,100787.47
2023-04-18T01:01:51.588Z,100788.69
2023-04-18T01:04:29.247Z,100787.50
2023-04-18T01:07:05.950Z,100792.66
2023-04-18T01:09:41.444Z,100794.56
2023-04-18T01:12:11.265Z,100791.63
2023-04-18T01:17:27.641Z,100789.03
2023-04-18T01:19:57.028Z,100788.84
2023-04-18T01:22:26.369Z,100785.94
2023-04-18T01:28:15.189Z,100784.41
2023-04-18T01:30:55.185Z,100775.03
2023-04-18T01:33:32.133Z,100775.22
2023-04-18T01:36:13.465Z,100773.09
2023-04-18T01:38:52.960Z,100774.63
2023-04-18T01:41:19.724Z,100761.88
2023-04-18T01:43:52.865Z,100762.41
2023-04-18T01:46:27.197Z,100758.22
2023-04-18T01:48:56.511Z,100759.63
2023-04-18T01:51:26.454Z,100756.84
2023-04-18T01:54:02.025Z,100755.63
2023-04-18T01:56:34.166Z,100757.16
2023-04-18T01:59:13.592Z,100755.44
2023-04-18T02:01:49.323Z,100749.31
2023-04-18T02:04:16.513Z,100753.16
2023-04-18T02:06:43.375Z,100757.97
2023-04-18T02:09:10.119Z,100750.50
2023-04-18T02:11:50.378Z,100751.38
2023-04-18T02:14:17.144Z,100754.34
2023-04-18T02:16:43.942Z,100751.13
2023-04-18T02:19:13.487Z,100749.00
2023-04-18T02:21:40.198Z,100741.88
2023-04-18T02:24:09.982Z,100750.38
2023-04-18T02:26:39.724Z,100746.31
2023-04-18T02:29:06.408Z,100749.25
2023-04-18T02:31:33.484Z,100745.09
2023-04-18T02:34:00.225Z,100749.97
2023-04-18T02:36:29.912Z,100742.41
2023-04-18T02:38:57.015Z,100750.19
2023-04-18T02:41:23.792Z,100749.72
2023-04-18T02:44:03.130Z,100754.44
2023-04-18T02:46:37.999Z,100750.06
2023-04-18T02:49:04.771Z,100749.94
2023-04-18T02:51:31.714Z,100750.47
2023-04-18T02:54:02.923Z,100748.06
2023-04-18T02:56:29.808Z,100752.44
2023-04-18T02:59:08.757Z,100758.81
2023-04-18T03:01:45.205Z,100758.75
2023-04-18T03:04:16.227Z,100765.19
2023-04-18T03:06:48.692Z,100763.97
2023-04-18T03:09:19.973Z,100755.19
2023-04-18T03:11:49.428Z,100757.91
2023-04-18T03:14:17.143Z,100754.72
2023-04-18T03:16:44.007Z,100761.81
2023-04-18T03:19:12.283Z,100760.41
2023-04-18T03:21:41.275Z,100762.69
2023-04-18T03:24:12.255Z,100754.94
2023-04-18T03:26:47.133Z,100757.03
2023-04-18T03:29:22.546Z,100756.22
2023-04-18T03:31:49.360Z,100759.69
2023-04-18T03:34:16.092Z,100757.19
2023-04-18T03:36:49.225Z,100752.13
2023-04-18T03:39:16.044Z,100761.66
2023-04-18T03:41:42.818Z,100760.59
2023-04-18T03:44:17.406Z,100769.22
2023-04-18T03:46:44.600Z,100767.63
2023-04-18T03:49:16.771Z,100767.91
2023-04-18T03:51:46.590Z,100773.19
2023-04-18T03:56:54.916Z,100764.94
2023-04-18T03:59:28.720Z,100759.69
2023-04-18T04:01:55.719Z,100766.25
2023-04-18T04:04:22.736Z,100761.19
2023-04-18T04:06:53.895Z,100764.53
2023-04-18T04:09:20.686Z,100769.94
2023-04-18T04:11:50.724Z,100773.31
2023-04-18T04:14:23.408Z,100767.97
2023-04-18T04:17:00.539Z,100776.31
2023-04-18T04:19:27.244Z,100767.97
2023-04-18T04:21:53.965Z,100777.84
2023-04-18T04:24:20.700Z,100781.47
2023-04-18T04:26:47.535Z,100779.72
2023-04-18T04:29:15.206Z,100778.28
2023-04-18T04:31:49.299Z,100776.25
2023-04-18T04:34:16.232Z,100783.13
2023-04-18T04:36:49.675Z,100769.72
2023-04-18T04:39:16.704Z,100791.47
2023-04-18T04:41:43.430Z,100787.78
2023-04-18T04:44:10.123Z,100786.66
2023-04-18T04:46:39.767Z,100793.22
2023-04-18T04:49:06.692Z,100792.81
2023-04-18T04:51:35.985Z,100799.31
2023-04-18T04:54:06.345Z,100801.28
2023-04-18T04:56:33.349Z,100806.28
2023-04-18T04:59:02.929Z,100814.16
2023-04-18T05:01:39.306Z,100804.03
2023-04-18T05:04:06.283Z,100803.16
2023-04-18T05:06:38.393Z,100800.97
2023-04-18T05:09:09.972Z,100813.09
2023-04-18T05:11:39.294Z,100808.28
2023-04-18T05:14:06.098Z,100815.31
2023-04-18T05:16:34.959Z,100806.19
2023-04-18T05:19:01.839Z,100806.88
2023-04-18T05:21:30.369Z,100811.34
2023-04-18T05:24:00.548Z,100810.06
2023-04-18T05:26:31.215Z,100814.63
2023-04-18T05:29:00.802Z,100819.75
2023-04-18T05:31:29.110Z,100815.91
2023-04-18T05:33:55.960Z,100810.06
2023-04-18T05:36:25.717Z,100822.81
2023-04-18T05:38:52.443Z,100813.06
2023-04-18T05:41:19.153Z,100813.81
2023-04-18T05:44:04.839Z,100824.22
2023-04-18T05:46:34.653Z,100828.41
2023-04-18T05:49:04.600Z,100827.75
2023-04-18T05:51:31.386Z,100831.28
2023-04-18T05:54:04.258Z,100827.84
2023-04-18T05:56:31.025Z,100831.41
2023-04-18T05:59:00.369Z,100835.53
2023-04-18T06:01:28.602Z,100844.50
2023-04-18T06:03:58.878Z,100835.22
2023-04-18T06:06:33.830Z,100842.19
2023-04-18T06:09:00.857Z,100842.53
2023-04-18T06:11:27.645Z,100844.28
2023-04-18T06:13:54.412Z,100842.06
2023-04-18T06:16:25.653Z,100840.38
2023-04-18T06:18:55.610Z,100841.53
2023-04-18T06:21:28.353Z,100847.88
2023-04-18T06:24:12.804Z,100850.00
2023-04-18T06:26:42.084Z,100846.13
2023-04-18T06:29:19.769Z,100850.84
2023-04-18T06:32:13.720Z,100850.13
2023-04-18T06:34:47.875Z,100851.31
2023-04-18T06:37:19.363Z,100862.13
2023-04-18T06:39:46.091Z,100862.31
2023-04-18T06:42:23.066Z,100862.31
2023-04-18T06:45:13.202Z,100864.75
2023-04-18T06:47:42.565Z,100863.09
2023-04-18T06:50:10.276Z,100861.75
2023-04-18T06:52:56.957Z,100864.03
2023-04-18T06:55:34.204Z,100857.16
2023-04-18T06:58:12.412Z,100852.47
2023-04-18T07:00:39.384Z,100856.78
2023-04-18T07:03:07.630Z,100857.88
2023-04-18T07:05:49.108Z,100853.59
2023-04-18T07:08:24.151Z,100858.91
2023-04-18T07:10:57.010Z,100861.56
2023-04-18T07:13:23.753Z,100863.59
2023-04-18T07:15:53.850Z,100865.84
2023-04-18T07:18:38.720Z,100868.44
2023-04-18T07:21:07.495Z,100870.41
2023-04-18T07:23:41.010Z,100862.03
2023-04-18T07:29:04.329Z,100866.19
2023-04-18T07:34:26.673Z,100877.38
2023-04-18T07:36:56.178Z,100881.03
2023-04-18T07:39:28.759Z,100868.34
2023-04-18T07:42:06.088Z,100872.13
2023-04-18T07:44:36.344Z,100876.16
2023-04-18T07:47:08.929Z,100879.34
2023-04-18T07:49:40.024Z,100875.78
2023-04-18T07:52:08.805Z,100876.47
2023-04-18T07:54:41.251Z,100883.53
2023-04-18T07:57:08.022Z,100883.50
2023-04-18T07:59:46.946Z,100881.59
2023-04-18T08:02:18.482Z,100882.88
2023-04-18T08:04:51.272Z,100895.78
2023-04-18T08:07:18.200Z,100886.72
2023-04-18T08:09:44.961Z,100891.44
2023-04-18T08:12:11.713Z,100885.81
2023-04-18T08:14:41.525Z,100888.16
2023-04-18T08:17:11.205Z,100892.25
2023-04-18T08:19:40.952Z,100894.50
2023-04-18T08:22:11.551Z,100895.78
2023-04-18T08:24:39.258Z,100895.94
2023-04-18T08:27:11.984Z,100896.88
2023-04-18T08:29:56.278Z,100909.94
2023-04-18T08:32:24.206Z,100906.00
2023-04-18T08:34:50.924Z,100912.53
2023-04-18T08:37:17.627Z,100907.47
2023-04-18T08:39:48.692Z,100910.06
2023-04-18T08:42:18.976Z,100908.38
2023-04-18T08:44:47.531Z,100918.53
2023-04-18T08:47:15.114Z,100907.94
2023-04-18T08:49:46.654Z,100903.44
2023-04-18T08:52:14.966Z,100913.78
2023-04-18T08:54:45.277Z,100916.06
2023-04-18T08:57:18.793Z,100922.25
2023-04-18T08:59:48.260Z,100916.84
2023-04-18T09:02:23.285Z,100918.41
2023-04-18T09:04:53.397Z,100919.19
2023-04-18T09:07:28.648Z,100921.66
2023-04-18T09:09:57.597Z,100929.28
2023-04-18T09:12:27.159Z,100927.53
2023-04-18T09:15:18.767Z,100926.63
2023-04-18T09:17:47.330Z,100931.22
2023-04-18T09:20:39.992Z,100933.94
2023-04-18T09:23:27.625Z,100928.34
2023-04-18T09:26:01.463Z,100929.69
2023-04-18T09:28:41.454Z,100937.22
2023-04-18T09:31:10.739Z,100929.69
2023-04-18T09:33:48.478Z,100929.16
2023-04-18T09:36:26.304Z,100925.34
2023-04-18T09:39:04.196Z,100931.50
2023-04-18T09:41:37.095Z,100936.47
2023-04-18T09:44:21.763Z,100936.34
2023-04-18T09:46:49.466Z,100933.69
2023-04-18T09:49:27.803Z,100925.91
2023-04-18T09:54:39.150Z,100923.84
2023-04-18T09:57:17.435Z,100927.34
2023-04-18T10:00:13.482Z,100919.16
2023-04-18T10:02:47.915Z,100915.28
2023-04-18T10:05:23.166Z,100918.06
2023-04-18T10:07:50.678Z,100912.34
2023-04-18T10:10:22.207Z,100914.06
2023-04-18T10:12:55.382Z,100906.31
2023-04-18T10:15:25.900Z,100904.56
2023-04-18T10:18:04.587Z,100915.72
2023-04-18T10:20:33.971Z,100910.28
2023-04-18T10:23:31.752Z,100909.59
2023-04-18T10:25:59.422Z,100904.13
2023-04-18T10:28:32.070Z,100901.84
2023-04-18T10:31:01.941Z,100901.41
2023-04-18T10:33:43.205Z,100899.50
2023-04-18T10:36:09.887Z,100898.28
2023-04-18T10:38:37.739Z,100904.44
2023-04-18T10:41:22.408Z,100895.59
2023-04-18T10:44:08.530Z,100908.94
2023-04-18T10:46:42.474Z,100898.97
2023-04-18T10:49:53.222Z,100905.31
2023-04-18T10:52:20.066Z,100889.84
2023-04-18T10:55:10.268Z,100889.97
2023-04-18T10:57:47.781Z,100885.72
2023-04-18T11:00:17.476Z,100896.97
2023-04-18T11:02:56.765Z,100890.69
2023-04-18T11:05:32.152Z,100893.72
2023-04-18T11:08:01.178Z,100894.13
2023-04-18T11:10:32.410Z,100889.09
2023-04-18T11:13:05.483Z,100899.72
2023-04-18T11:15:39.499Z,100897.94
2023-04-18T11:18:06.447Z,100895.97
2023-04-18T11:20:46.290Z,100903.19
2023-04-18T11:23:25.046Z,100903.13
2023-04-18T11:25:55.139Z,100892.81
2023-04-18T11:28:22.812Z,100906.22
2023-04-18T11:30:52.365Z,100899.91
2023-04-18T11:33:19.126Z,100897.94
2023-04-18T11:35:46.688Z,100907.00
2023-04-18T11:38:24.344Z,100899.25
2023-04-18T11:40:56.696Z,100906.56
2023-04-18T11:43:25.262Z,100898.25
2023-04-18T11:45:59.469Z,100900.53
2023-04-18T11:48:47.809Z,100902.22
2023-04-18T11:51:35.070Z,100907.31
2023-04-18T11:54:02.149Z,100918.06
2023-04-18T11:56:29.090Z,100900.19
2023-04-18T11:59:01.488Z,100908.22
2023-04-18T12:01:29.620Z,100903.00
2023-04-18T12:04:17.483Z,100900.56
2023-04-18T12:06:52.788Z,100907.44
2023-04-18T12:09:31.120Z,100901.84
2023-04-18T12:11:58.819Z,100896.75
2023-04-18T12:14:46.204Z,100903.00
2023-04-18T12:17:13.453Z,100905.03
2023-04-18T12:19:49.867Z,100900.25
2023-04-18T12:22:20.182Z,100901.88
2023-04-18T12:25:10.493Z,100897.44
2023-04-18T12:27:58.880Z,100914.91
2023-04-18T12:30:42.326Z,100915.81
2023-04-18T12:33:11.752Z,100914.59
2023-04-18T12:35:39.431Z,100911.31
2023-04-18T12:38:18.524Z,100914.00
2023-04-18T12:40:49.306Z,100920.44
2023-04-18T12:43:16.427Z,100918.38
2023-04-18T12:45:48.632Z,100909.09
2023-04-18T12:48:15.474Z,100923.63
2023-04-18T12:50:42.380Z,100912.06
2023-04-18T12:53:19.814Z,100894.78
2023-04-18T12:55:46.643Z,100911.53
2023-04-18T12:58:21.428Z,100908.34
2023-04-18T13:00:54.142Z,100901.84
2023-04-18T13:03:32.962Z,100903.78
2023-04-18T13:06:02.914Z,100900.69
2023-04-18T13:08:29.962Z,100897.59
2023-04-18T13:11:08.034Z,100893.66
2023-04-18T13:13:37.290Z,100905.69
2023-04-18T13:16:07.175Z,100901.66
2023-04-18T13:18:33.991Z,100901.38
2023-04-18T13:21:06.177Z,100896.41
2023-04-18T13:23:38.189Z,100901.16
2023-04-18T13:26:07.492Z,100893.13
2023-04-18T13:28:34.188Z,100894.75
2023-04-18T13:31:03.222Z,100892.44
2023-04-18T13:36:14.908Z,100893.88
2023-04-18T13:38:42.940Z,100895.19
2023-04-18T13:41:14.220Z,100889.03
2023-04-18T13:43:50.195Z,100887.41
2023-04-18T13:46:19.938Z,100893.28
2023-04-18T13:48:51.997Z,100883.78
2023-04-18T13:51:18.694Z,100884.91
2023-04-18T13:53:45.372Z,100887.19
2023-04-18T13:56:15.081Z,100884.47
2023-04-18T13:58:41.764Z,100879.44
2023-04-18T14:01:14.129Z,100881.72
2023-04-18T14:03:43.504Z,100886.16
2023-04-18T14:06:33.901Z,100873.41
2023-04-18T14:09:02.201Z,100875.38
2023-04-18T14:11:37.080Z,100886.34
2023-04-18T14:16:55.173Z,100884.16
2023-04-18T14:19:27.357Z,100892.09
2023-04-18T14:22:00.503Z,100883.13
2023-04-18T14:24:33.339Z,100882.81
2023-04-18T14:27:04.194Z,100880.69
2023-04-18T14:29:38.158Z,100887.38
2023-04-18T14:32:06.408Z,100881.44
2023-04-18T14:34:43.255Z,100884.03
2023-04-18T14:37:09.982Z,100880.28
2023-04-18T14:39:56.616Z,100870.63
2023-04-18T14:42:25.998Z,100883.63
2023-04-18T14:45:06.728Z,100887.09
2023-04-18T14:47:33.529Z,100882.28
2023-04-18T14:50:03.037Z,100883.56
2023-04-18T14:52:32.408Z,100877.72
2023-04-18T14:54:59.733Z,100875.66
2023-04-18T14:57:29.622Z,100886.38
2023-04-18T15:00:03.949Z,100882.22
2023-04-18T15:02:30.805Z,100875.38
2023-04-18T15:05:02.354Z,100876.94
2023-04-18T15:07:29.103Z,100875.09
2023-04-18T15:10:01.815Z,100868.31
2023-04-18T15:12:29.877Z,100869.94
2023-04-18T15:14:56.989Z,100869.00
2023-04-18T15:17:29.318Z,100872.91
2023-04-18T15:19:59.453Z,100878.88
2023-04-18T15:22:30.759Z,100874.38
2023-04-18T15:25:00.992Z,100876.31
2023-04-18T15:27:28.974Z,100877.84
2023-04-18T15:29:55.650Z,100875.03
2023-04-18T15:32:26.340Z,100869.91
2023-04-18T15:34:54.409Z,100870.75
2023-04-18T15:37:23.046Z,100872.31
2023-04-18T15:39:49.728Z,100866.28
2023-04-18T15:42:20.310Z,100868.00
2023-04-18T15:44:49.503Z,100863.31
2023-04-18T15:47:16.160Z,100866.81
2023-04-18T15:49:43.198Z,100867.72
2023-04-18T15:52:14.236Z,100858.28
2023-04-18T15:54:41.193Z,100864.88
2023-04-18T15:57:11.253Z,100864.66
2023-04-18T16:02:30.612Z,100872.09
2023-04-18T16:04:57.394Z,100869.56
2023-04-18T16:07:24.070Z,100874.53
2023-04-18T16:09:50.735Z,100874.97
2023-04-18T16:12:20.404Z,100876.00
2023-04-18T16:14:47.123Z,100871.78
2023-04-18T16:17:13.814Z,100871.88
2023-04-18T16:19:40.521Z,100874.53
2023-04-18T16:22:07.225Z,100878.25
2023-04-18T16:24:33.945Z,100888.69
2023-04-18T16:27:09.383Z,100891.13
2023-04-18T16:29:36.024Z,100886.59
2023-04-18T16:32:07.081Z,100889.34
2023-04-18T16:34:36.548Z,100890.59
2023-04-18T16:37:07.006Z,100884.75
2023-04-18T16:39:37.529Z,100895.28
2023-04-18T16:42:17.548Z,100889.34
2023-04-18T16:44:48.623Z,100890.69
2023-04-18T16:47:29.120Z,100894.69
2023-04-18T16:49:55.999Z,100889.81
2023-04-18T16:52:22.890Z,100893.72
2023-04-18T16:54:51.978Z,100891.66
2023-04-18T16:57:19.314Z,100893.72
2023-04-18T16:59:45.960Z,100898.72
2023-04-18T17:02:27.406Z,100905.03
2023-04-18T17:04:57.921Z,100906.94
2023-04-18T17:07:39.022Z,100904.13
2023-04-18T17:10:10.117Z,100907.34
2023-04-18T17:12:41.414Z,100907.84
2023-04-18T17:15:11.183Z,100910.56
2023-04-18T17:17:52.261Z,100912.41
2023-04-18T17:20:22.275Z,100910.41
2023-04-18T17:22:49.086Z,100913.72
2023-04-18T17:25:20.358Z,100910.28
2023-04-18T17:27:49.517Z,100912.97
2023-04-18T17:30:20.161Z,100912.16
2023-04-18T17:33:05.374Z,100919.31
2023-04-18T17:35:34.659Z,100924.44
2023-04-18T17:38:08.581Z,100913.78
2023-04-18T17:40:35.307Z,100922.44
2023-04-18T17:43:02.161Z,100915.28
2023-04-18T17:45:30.871Z,100923.88
2023-04-18T17:47:58.327Z,100932.28
2023-04-18T17:50:29.427Z,100929.03
2023-04-18T17:52:56.279Z,100927.66
2023-04-18T17:55:23.257Z,100926.22
2023-04-18T17:57:49.988Z,100931.97
2023-04-18T18:00:20.950Z,100931.09
2023-04-18T18:02:47.912Z,100937.03
2023-04-18T18:05:19.592Z,100943.19
2023-04-18T18:07:54.694Z,100937.56
2023-04-18T18:10:22.957Z,100943.09
2023-04-18T18:12:53.180Z,100947.59
2023-04-18T18:15:24.586Z,100951.81
2023-04-18T18:17:54.270Z,100946.44
2023-04-18T18:20:23.116Z,100949.28
2023-04-18T18:22:52.174Z,100950.84
2023-04-18T18:25:18.999Z,100938.56
2023-04-18T18:27:50.078Z,100939.69
2023-04-18T18:30:27.823Z,100949.00
2023-04-18T18:32:54.937Z,100949.97
2023-04-18T18:35:25.273Z,100957.38
2023-04-18T18:37:55.306Z,100963.75
2023-04-18T18:40:22.644Z,100972.13
2023-04-18T18:42:56.794Z,100976.63
2023-04-18T18:45:38.903Z,100984.19
2023-04-18T18:48:05.998Z,100990.31
2023-04-18T18:50:36.218Z,100990.50
2023-04-18T18:53:08.677Z,100993.38
2023-04-18T18:55:55.089Z,101005.44
2023-04-18T18:58:34.599Z,101009.94
2023-04-18T19:01:01.721Z,101013.00
2023-04-18T19:03:29.876Z,101011.19
2023-04-18T19:06:03.432Z,101015.09
2023-04-18T19:08:44.870Z,101006.69
2023-04-18T19:11:11.461Z,101003.63
2023-04-18T19:13:38.331Z,101012.41
2023-04-18T19:16:08.100Z,101017.16
2023-04-18T19:18:34.767Z,101011.84
2023-04-18T19:21:02.343Z,101016.94
2023-04-18T19:23:29.047Z,101019.19
2023-04-18T19:25:58.130Z,101022.28
2023-04-18T19:28:28.309Z,101023.94
2023-04-18T19:31:08.287Z,101029.25
2023-04-18T19:33:35.138Z,101020.47
2023-04-18T19:36:01.801Z,101028.63
2023-04-18T19:38:28.631Z,101024.34
2023-04-18T19:40:55.356Z,101025.78
2023-04-18T19:43:22.055Z,101027.81
2023-04-18T19:45:52.615Z,101028.25
2023-04-18T19:48:27.884Z,101021.66
2023-04-18T19:50:56.589Z,101033.50
2023-04-18T19:53:23.368Z,101035.59
2023-04-18T19:55:55.737Z,101030.28
2023-04-18T19:58:40.970Z,101038.47
2023-04-18T20:01:20.629Z,101034.16
2023-04-18T20:03:48.801Z,101040.69
2023-04-18T20:06:24.166Z,101040.50
2023-04-18T20:08:50.861Z,101042.72
2023-04-18T20:11:20.351Z,101047.66
2023-04-18T20:13:47.061Z,101041.31
2023-04-18T20:16:13.812Z,101047.81
2023-04-18T20:18:41.354Z,101048.19
2023-04-18T20:21:09.354Z,101043.78
2023-04-18T20:23:49.410Z,101035.59
2023-04-18T20:26:18.947Z,101040.28
2023-04-18T20:28:45.607Z,101051.34
2023-04-18T20:31:15.332Z,101053.75
2023-04-18T20:33:42.137Z,101054.63
2023-04-18T20:36:12.396Z,101053.00
2023-04-18T20:38:39.096Z,101051.81
2023-04-18T20:41:06.567Z,101050.56
2023-04-18T20:43:37.645Z,101056.84
2023-04-18T20:46:04.531Z,101057.53
2023-04-18T20:48:36.500Z,101057.66
2023-04-18T20:51:13.081Z,101067.19
2023-04-18T20:53:42.595Z,101064.44
2023-04-18T20:56:09.484Z,101067.28
2023-04-18T20:58:43.674Z,101064.16
2023-04-18T21:01:10.535Z,101064.75
2023-04-18T21:03:46.446Z,101063.53
2023-04-18T21:06:18.595Z,101060.44
2023-04-18T21:08:48.288Z,101069.97
2023-04-18T21:11:20.749Z,101070.22
2023-04-18T21:13:47.435Z,101067.31
2023-04-18T21:16:14.227Z,101072.28
2023-04-18T21:18:44.004Z,101072.25
2023-04-18T21:21:10.662Z,101067.47
2023-04-18T21:23:44.539Z,101069.69
2023-04-18T21:26:12.691Z,101072.00
2023-04-18T21:29:12.752Z,101077.72
2023-04-18T21:31:51.530Z,101074.22
2023-04-18T21:34:18.371Z,101077.97
2023-04-18T21:37:14.483Z,101077.84
2023-04-18T21:39:50.836Z,101085.88
2023-04-18T21:42:20.378Z,101083.03
2023-04-18T21:44:47.119Z,101081.97
2023-04-18T21:47:24.384Z,101080.34
2023-04-18T21:49:58.440Z,101087.72
2023-04-18T21:52:29.213Z,101084.56
2023-04-18T21:54:59.360Z,101082.34
2023-04-18T21:57:35.778Z,101089.28
2023-04-18T22:00:05.089Z,101095.09
2023-04-18T22:02:35.805Z,101094.91
2023-04-18T22:05:03.099Z,101095.09
2023-04-18T22:07:35.340Z,101085.13
2023-04-18T22:10:16.174Z,101084.69
2023-04-18T22:12:46.241Z,101088.56
2023-04-18T22:15:16.045Z,101090.69
2023-04-18T22:17:49.332Z,101086.75
2023-04-18T22:20:25.722Z,101090.19
2023-04-18T22:23:01.450Z,101090.69
2023-04-18T22:25:31.588Z,101090.38
2023-04-18T22:28:11.212Z,101093.28
2023-04-18T22:30:50.157Z,101091.47
2023-04-18T22:33:17.516Z,101087.81
2023-04-18T22:35:44.245Z,101084.41
2023-04-18T22:38:10.938Z,101099.34
2023-04-18T22:40:40.577Z,101102.66
2023-04-18T22:43:12.972Z,101099.00
2023-04-18T22:45:45.823Z,101100.16
2023-04-18T22:48:12.603Z,101100.44
2023-04-18T22:50:48.553Z,101100.66
2023-04-18T22:53:18.108Z,101106.78
2023-04-18T22:55:49.761Z,101110.25
2023-04-18T22:58:19.237Z,101109.03
2023-04-18T23:00:46.068Z,101110.66
2023-04-18T23:03:16.570Z,101110.25
2023-04-18T23:05:43.359Z,101108.78
2023-04-18T23:08:10.084Z,101112.06
2023-04-18T23:10:44.614Z,101116.88
2023-04-18T23:13:14.046Z,101104.06
2023-04-18T23:15:43.792Z,101116.88
2023-04-18T23:18:13.427Z,101101.47
2023-04-18T23:20:48.211Z,101114.28
2023-04-18T23:23:15.045Z,101110.44
2023-04-18T23:25:41.741Z,101111.44
2023-04-18T23:28:11.548Z,101111.06
2023-04-18T23:33:20.895Z,101111.31
2023-04-18T23:35:54.252Z,101114.59
2023-04-18T23:38:29.337Z,101117.88
2023-04-18T23:40:59.134Z,101114.81
2023-04-18T23:43:25.825Z,101112.94
2023-04-18T23:46:03.904Z,101113.34
2023-04-18T23:48:39.589Z,101114.06
2023-04-18T23:51:07.451Z,101114.81
2023-04-18T23:53:36.520Z,101114.13
2023-04-18T23:56:09.597Z,101116.78
2023-04-18T23:58:40.888Z,101109.84
